CW9009 Weather Reports


Display with metric or nautical units.
time (UTC)temp
F
wind
direction
speed
MPH
gust
MPH
rain 1hr
in
rain 24hr
in
rain mn
in
humidity
%
barometer
mb
20200714215219 86 265 4.0 7.0 0.00 0.00 0.00 19 1016.0
20200714214218 85 274 5.0 8.0 0.00 0.00 0.00 19 1016.2
20200714213218 85 245 1.0 4.0 0.00 0.00 0.00 19 1016.2
20200714212219 84 293 4.0 7.0 0.00 0.00 0.00 20 1016.3
20200714211219 83 254 4.0 6.0 0.00 0.00 0.00 19 1016.4
20200714210219 83 265 5.0 6.0 0.00 0.00 0.00 19 1016.4
20200714205219 83 270 1.0 3.0 0.00 0.00 0.00 20 1016.4
20200714204221 82 289 3.0 6.0 0.00 0.00 0.00 21 1016.4
20200714203220 81 257 3.0 4.0 0.00 0.00 0.00 21 1016.5
20200714202220 81 235 1.0 3.0 0.00 0.00 0.00 21 1016.7
20200714201220 81 268 5.0 7.0 0.00 0.00 0.00 23 1016.8
20200714200220 80 242 1.0 3.0 0.00 0.00 0.00 24 1016.9
20200714195223 80 277 3.0 6.0 0.00 0.00 0.00 24 1016.9
20200714194220 79 276 3.0 5.0 0.00 0.00 0.00 25 1017.0
20200714193221 78 356 1.0 2.0 0.00 0.00 0.00 26 1017.0
20200714192221 78 264 3.0 7.0 0.00 0.00 0.00 30 1017.1
20200714191221 78 228 2.0 3.0 0.00 0.00 0.00 31 1017.3
20200714190222 77 270 4.0 6.0 0.00 0.00 0.00 31 1017.5
20200714185221 76 262 4.0 6.0 0.00 0.00 0.00 31 1017.3
20200714184221 75 112 0.0 2.0 0.00 0.00 0.00 31 1017.5
20200714183224 75 234 3.0 5.0 0.00 0.00 0.00 35 1017.5
20200714182222 74 281 4.0 7.0 0.00 0.00 0.00 34 1017.3
20200714181222 73 261 3.0 6.0 0.00 0.00 0.00 35 1017.5
20200714180222 72 277 1.0 2.0 0.00 0.00 0.00 36 1017.5
20200714175224 72 255 2.0 4.0 0.00 0.00 0.00 39 1017.5
20200714174223 71 277 2.0 3.0 0.00 0.00 0.00 39 1017.5
20200714173227 70 176 1.0 2.0 0.00 0.00 0.00 39 1017.7
20200714172223 69 273 2.0 3.0 0.00 0.00 0.00 40 1017.6
20200714171223 68 271 3.0 6.0 0.00 0.00 0.00 40 1017.6
20200714170223 68 268 2.0 3.0 0.00 0.00 0.00 42 1017.5
20200714165229 67 261 2.0 3.0 0.00 0.00 0.00 43 1017.6
20200714164223 66 283 2.0 3.0 0.00 0.00 0.00 43 1017.6
20200714163223 65 184 0.0 0.0 0.00 0.00 0.00 46 1017.6
20200714162224 65 245 2.0 4.0 0.00 0.00 0.00 46 1017.6
20200714161224 64 251 1.0 2.0 0.00 0.00 0.00 47 1017.6
20200714160224 63 269 3.0 4.0 0.00 0.00 0.00 47 1017.5
20200714155225 63 252 3.0 7.0 0.00 0.00 0.00 47 1017.6
20200714154225 62 0.0 0.0 0.00 0.00 0.00 47 1017.5
20200714153227 61 244 1.0 2.0 0.00 0.00 0.00 47 1017.6
20200714152225 61 258 2.0 3.0 0.00 0.00 0.00 47 1017.5
20200714151225 60 1 1.0 3.0 0.00 0.00 0.00 47 1017.5
20200714150226 60 209 1.0 2.0 0.00 0.00 0.00 47 1017.6
20200714145226 59 340 1.0 2.0 0.00 0.00 0.00 47 1017.3
20200714144226 58 239 1.0 3.0 0.00 0.00 0.00 48 1017.2
20200714143226 58 104 1.0 2.0 0.00 0.00 0.00 50 1017.1
20200714142226 57 334 1.0 2.0 0.00 0.00 0.00 51 1017.1
20200714141226 56 0.0 0.0 0.00 0.00 0.00 52 1017.2
20200714140226 55 122 0.0 1.0 0.00 0.00 0.00 52 1017.1
20200714135227 55 75 0.0 2.0 0.00 0.00 0.00 53 1017.0
20200714134227 54 0.0 0.0 0.00 0.00 0.00 53 1016.9
20200714133227 54 0.0 0.0 0.00 0.00 0.00 56 1016.8
20200714132229 53 0.0 0.0 0.00 0.00 0.00 56 1016.7
20200714131227 53 0.0 0.0 0.00 0.00 0.00 56 1016.6
20200714130227 53 0.0 0.0 0.00 0.00 0.00 57 1016.4
20200714125227 53 0.0 0.0 0.00 0.00 0.00 56 1016.4
20200714124227 53 0.0 0.0 0.00 0.00 0.00 56 1016.4
20200714123227 53 0.0 0.0 0.00 0.00 0.00 57 1016.3
20200714122229 53 0.0 0.0 0.00 0.00 0.00 57 1016.2
20200714121228 54 0.0 0.0 0.00 0.00 0.00 56 1016.0
20200714120229 54 0.0 0.0 0.00 0.00 0.00 56 1015.9
20200714115229 54 0.0 0.0 0.00 0.00 0.00 53 1015.8
20200714114229 55 0.0 0.0 0.00 0.00 0.00 56 1015.6
20200714113229 55 0.0 0.0 0.00 0.00 0.00 53 1015.5
20200714112229 55 0.0 0.0 0.00 0.00 0.00 52 1015.4
20200714111234 55 0.0 0.0 0.00 0.00 0.00 51 1015.3
20200714110231 56 0.0 0.0 0.00 0.00 0.00 50 1015.2
20200714105229 56 0.0 0.0 0.00 0.00 0.00 50 1015.2
20200714104230 56 0.0 0.0 0.00 0.00 0.00 50 1015.0
20200714103230 57 0.0 0.0 0.00 0.00 0.00 51 1015.0
20200714102231 57 0.0 0.0 0.00 0.00 0.00 50 1015.0
20200714101230 57 284 1.0 3.0 0.00 0.00 0.00 48 1014.9
20200714100230 57 71 0.0 1.0 0.00 0.00 0.00 51 1015.0
20200714095231 57 92 1.0 2.0 0.00 0.00 0.00 51 1014.7
20200714094231 58 104 1.0 2.0 0.00 0.00 0.00 50 1014.6
20200714093231 59 140 1.0 2.0 0.00 0.00 0.00 48 1014.4
20200714092231 59 236 1.0 2.0 0.00 0.00 0.00 48 1014.3
20200714091231 58 248 2.0 3.0 0.00 0.00 0.00 51 1014.4
20200714090216 59 280 1.0 3.0 0.00 0.00 0.00 51 1014.2
20200714085216 59 288 2.0 3.0 0.00 0.00 0.00 51 1014.2
20200714084217 59 0.0 0.0 0.00 0.00 0.00 51 1014.1
20200714083216 59 0.0 0.0 0.00 0.00 0.00 51 1014.0
20200714082217 60 293 2.0 4.0 0.00 0.00 0.00 51 1013.9
20200714081217 60 267 1.0 2.0 0.00 0.00 0.00 47 1014.0
20200714080217 61 267 1.0 2.0 0.00 0.00 0.00 46 1013.9
20200714075218 61 0.0 0.0 0.00 0.00 0.00 45 1013.8
20200714074219 62 276 1.0 3.0 0.00 0.00 0.00 43 1013.7
20200714073218 63 0.0 0.0 0.00 0.00 0.00 40 1013.7
20200714072218 63 0.0 0.0 0.00 0.00 0.00 40 1013.6
20200714071218 63 0.0 0.0 0.00 0.00 0.00 43 1013.7
20200714070218 64 0.0 0.0 0.00 0.00 0.00 43 1013.7
20200714065218 64 0.0 0.0 0.00 0.00 0.00 40 1013.4
20200714064219 65 0.0 0.0 0.00 0.00 0.00 43 1013.4
20200714063219 65 0.0 0.0 0.00 0.00 0.00 40 1013.4
20200714062219 66 0.0 0.0 0.00 0.00 0.00 39 1013.3
20200714061220 66 0.0 0.0 0.00 0.00 0.00 39 1013.2
20200714060221 66 0.0 0.0 0.00 0.00 0.00 37 1013.2
20200714055219 67 0.0 0.0 0.00 0.00 0.00 36 1013.2
20200714054220 67 0.0 0.0 0.00 0.00 0.00 36 1013.1
20200714053220 68 0.0 0.0 0.00 0.00 0.00 35 1013.0
20200714052220 69 0.0 0.0 0.00 0.00 0.00 34 1012.9
20200714051221 69 0.0 0.0 0.00 0.00 0.00 32 1012.9
20200714050220 70 0.0 0.0 0.00 0.00 0.00 31 1012.9
20200714045221 71 0.0 0.0 0.00 0.00 0.00 30 1013.0
20200714044221 71 272 0.0 2.0 0.00 0.00 0.00 29 1012.9
20200714043221 72 0.0 0.0 0.00 0.00 0.00 29 1012.9
20200714042221 72 280 1.0 2.0 0.00 0.00 0.00 29 1012.8
20200714041221 73 0.0 0.0 0.00 0.00 0.00 26 1012.7
20200714040222 74 0.0 0.0 0.00 0.00 0.00 26 1012.6
20200714035222 75 259 2.0 3.0 0.00 0.00 0.00 25 1012.6
20200714034222 77 268 1.0 2.0 0.00 0.00 0.00 23 1012.4
20200714033222 78 270 1.0 2.0 0.00 0.00 0.00 20 1012.3
20200714032222 79 271 1.0 2.0 0.00 0.00 0.00 20 1012.3
20200714031222 80 0.0 0.0 0.00 0.00 0.00 19 1012.3
20200714030223 81 0.0 0.0 0.00 0.00 0.00 18 1012.3
20200714025223 83 255 2.0 2.0 0.00 0.00 0.00 18 1012.3
20200714024223 84 254 1.0 3.0 0.00 0.00 0.00 16 1012.3
20200714023225 84 316 3.0 4.0 0.00 0.00 0.00 15 1012.3
20200714022223 85 219 2.0 4.0 0.00 0.00 0.00 15 1012.2
20200714021224 85 270 1.0 2.0 0.00 0.00 0.00 15 1012.2
20200714020223 85 273 1.0 2.0 0.00 0.00 0.00 13 1012.2
20200714015224 86 191 2.0 3.0 0.00 0.00 0.00 12 1012.2
20200714014225 86 211 2.0 3.0 0.00 0.00 0.00 13 1012.0
20200714013231 86 262 2.0 3.0 0.00 0.00 0.00 10 1012.2
20200714012224 86 218 2.0 3.0 0.00 0.00 0.00 12 1012.2
20200714011225 86 264 1.0 3.0 0.00 0.00 0.00 10 1012.2
20200714010225 86 251 1.0 2.0 0.00 0.00 0.00 10 1012.3
20200714005225 86 293 1.0 3.0 0.00 0.00 0.00 10 1012.3
20200714004226 86 181 2.0 4.0 0.00 0.00 0.00 10 1012.3
20200714003225 86 281 1.0 3.0 0.00 0.00 0.00 9 1012.3
20200714002225 86 179 2.0 2.0 0.00 0.00 0.00 7 1012.3
20200714001225 86 271 3.0 4.0 0.00 0.00 0.00 10 1012.4
20200714000226 86 288 2.0 3.0 0.00 0.00 0.00 12 1012.5
20200713235226 85 209 2.0 2.0 0.00 0.00 0.00 13 1012.6
20200713234227 85 222 2.0 3.0 0.00 0.00 0.00 13 1012.7
20200713233227 85 261 3.0 4.0 0.00 0.00 0.00 15 1012.7
20200713232226 85 325 3.0 6.0 0.00 0.00 0.00 15 1012.8
20200713231227 84 0.0 0.0 0.00 0.00 0.00 16 1012.9
20200713230226 84 234 3.0 5.0 0.00 0.00 0.00 18 1012.9
20200713225227 84 270 2.0 4.0 0.00 0.00 0.00 18 1013.0
20200713224228 84 242 2.0 3.0 0.00 0.00 0.00 18 1013.2
20200713223228 84 253 3.0 3.0 0.00 0.00 0.00 16 1013.2
20200713222244 84 256 4.0 6.0 0.00 0.00 0.00 19 1013.2
20200713221228 83 267 8.0 10.0 0.00 0.00 0.00 21 1013.3
20200713220228 83 278 6.0 6.0 0.00 0.00 0.00 23 1013.4